Time;durP1;ratioP1;P1;durP2;ratioP2;P2;SDS_P1;SDS_P2;PMS_P1;PMS_P2;Temp;Humidity;BMP_temperature;BMP_pressure;BME280_temperature;BME280_humidity;BME280_pressure;Samples;Min_cycle;Max_cycle;Signal;HPM_P1;HPM_P2
2022/09/18 00:00:01;;;;;;;4.03;0.75;;;13.00;97.80;;;;;;5050754;28;20048;-57
2022/09/18 00:02:26;;;;;;;4.55;0.70;;;13.00;97.70;;;;;;5051390;28;20142;-57
2022/09/18 00:04:52;;;;;;;2.05;0.80;;;13.00;97.70;;;;;;5047840;28;20211;-57
2022/09/18 00:07:18;;;;;;;2.28;0.60;;;13.00;97.70;;;;;;5061371;28;20037;-57
2022/09/18 00:09:44;;;;;;;5.97;0.60;;;12.90;97.70;;;;;;5050226;28;20021;-57
2022/09/18 00:12:10;;;;;;;3.20;0.47;;;13.00;97.80;;;;;;5048661;28;20493;-57
2022/09/18 00:14:36;;;;;;;2.22;0.60;;;12.90;97.80;;;;;;5063410;28;20108;-57
2022/09/18 00:17:02;;;;;;;2.78;0.40;;;12.90;97.80;;;;;;5064058;28;20183;-57
2022/09/18 00:19:28;;;;;;;3.65;0.45;;;12.90;98.10;;;;;;5051408;28;20025;-57
2022/09/18 00:21:54;;;;;;;3.60;0.40;;;12.90;97.90;;;;;;5048821;28;20037;-58
2022/09/18 00:24:22;;;;;;;3.60;0.60;;;12.90;97.90;;;;;;5051408;28;20036;-57
2022/09/18 00:26:47;;;;;;;6.70;0.77;;;12.90;98.00;;;;;;5064009;28;20036;-58
2022/09/18 00:29:14;;;;;;;2.92;0.60;;;12.90;98.40;;;;;;5063094;28;20029;-57
2022/09/18 00:31:41;;;;;;;3.47;0.75;;;12.90;98.10;;;;;;5051155;28;20028;-57
2022/09/18 00:34:09;;;;;;;3.25;0.50;;;12.90;98.20;;;;;;5048586;28;20028;-57
2022/09/18 00:36:37;;;;;;;3.55;0.63;;;12.90;98.30;;;;;;5048478;28;20025;-56
2022/09/18 00:39:04;;;;;;;4.80;0.75;;;12.90;98.30;;;;;;5063298;28;20028;-56
2022/09/18 00:41:32;;;;;;;5.00;0.77;;;12.90;98.40;;;;;;5046618;28;20140;-57
2022/09/18 00:44:36;;;;;;;4.63;0.55;;;12.90;98.50;;;;;;5065689;28;20022;-57
2022/09/18 00:47:08;;;;;;;2.92;0.70;;;12.90;98.50;;;;;;5067761;28;20032;-56
2022/09/18 00:49:38;;;;;;;4.22;0.60;;;12.90;98.60;;;;;;5051185;28;20489;-57
2022/09/18 00:52:04;;;;;;;2.63;0.57;;;12.80;98.60;;;;;;5048537;28;20022;-56
2022/09/18 00:54:34;;;;;;;4.00;0.73;;;12.90;98.60;;;;;;5049828;28;20576;-56
2022/09/18 00:57:04;;;;;;;2.08;0.40;;;12.90;98.60;;;;;;5046894;28;20113;-57
2022/09/18 00:59:32;;;;;;;2.00;0.50;;;12.90;98.60;;;;;;5035971;28;20028;-57
2022/09/18 01:01:59;;;;;;;3.22;0.57;;;12.90;98.70;;;;;;5057406;28;20021;-57
2022/09/18 01:04:25;;;;;;;3.92;0.60;;;12.90;98.70;;;;;;5046217;28;20060;-55
2022/09/18 01:07:33;;;;;;;5.15;0.75;;;12.90;98.70;;;;;;5050750;28;20025;-57
2022/09/18 01:10:17;;;;;;;4.55;0.60;;;12.90;98.60;;;;;;5042839;28;20029;-57
2022/09/18 01:12:58;;;;;;;3.47;0.60;;;12.80;98.80;;;;;;5060084;28;20484;-57
2022/09/18 01:15:42;;;;;;;2.40;0.40;;;12.90;98.90;;;;;;5048115;28;20469;-58
2022/09/18 01:18:23;;;;;;;4.22;0.80;;;12.80;98.90;;;;;;5048031;28;20025;-57
2022/09/18 01:21:19;;;;;;;4.00;0.55;;;12.80;99.00;;;;;;5050652;28;20473;-58
2022/09/18 01:24:23;;;;;;;3.58;0.55;;;12.80;98.90;;;;;;5065075;28;20044;-57
2022/09/18 01:27:02;;;;;;;2.92;0.60;;;12.80;98.90;;;;;;5050372;28;20108;-57
2022/09/18 01:29:46;;;;;;;2.78;0.50;;;12.80;98.90;;;;;;5060277;28;20477;-57
2022/09/18 01:32:23;;;;;;;2.15;0.40;;;12.80;98.90;;;;;;5048435;28;20456;-57
2022/09/18 01:34:58;;;;;;;6.38;1.90;;;12.80;98.90;;;;;;5060054;28;20354;-57
2022/09/18 01:37:36;;;;;;;2.67;0.50;;;12.80;98.90;;;;;;5054970;28;20033;-57
2022/09/18 01:40:09;;;;;;;5.28;0.80;;;12.80;99.00;;;;;;5050506;28;20043;-57
2022/09/18 01:42:37;;;;;;;2.38;0.75;;;12.80;99.00;;;;;;5047272;28;20021;-56
2022/09/18 01:45:18;;;;;;;6.97;1.13;;;12.80;99.10;;;;;;5048424;28;20022;-56
2022/09/18 01:48:05;;;;;;;6.60;0.80;;;12.80;99.10;;;;;;5049516;28;20056;-57
2022/09/18 01:50:34;;;;;;;4.65;0.60;;;12.80;99.10;;;;;;5046488;28;20465;-56
2022/09/18 01:53:32;;;;;;;4.37;0.50;;;12.80;99.20;;;;;;5050017;28;20534;-57
2022/09/18 01:56:14;;;;;;;3.42;0.63;;;12.80;99.20;;;;;;5045303;28;20021;-56
2022/09/18 01:58:40;;;;;;;4.60;0.60;;;12.80;99.40;;;;;;5048969;28;20057;-56
2022/09/18 02:01:12;;;;;;;2.75;0.57;;;12.80;99.50;;;;;;5049123;28;20433;-56
2022/09/18 02:04:06;;;;;;;6.03;0.60;;;12.70;99.60;;;;;;5053192;28;20503;-56
2022/09/18 02:06:37;;;;;;;3.03;0.60;;;12.70;99.60;;;;;;5050174;28;20127;-57
2022/09/18 02:09:03;;;;;;;5.25;0.80;;;12.70;99.80;;;;;;5052747;28;20021;-57
2022/09/18 02:11:32;;;;;;;4.57;0.60;;;12.70;99.90;;;;;;5063455;28;20075;-56
2022/09/18 02:14:04;;;;;;;5.28;0.50;;;12.70;99.90;;;;;;5063378;28;20017;-56
2022/09/18 02:16:39;;;;;;;4.75;0.80;;;12.70;99.90;;;;;;5050944;28;20032;-56
2022/09/18 02:19:15;;;;;;;3.83;0.57;;;12.70;99.90;;;;;;5053871;28;20033;-56
2022/09/18 02:21:42;;;;;;;4.57;0.85;;;12.70;99.90;;;;;;5064834;28;20025;-56
2022/09/18 02:24:10;;;;;;;5.80;0.77;;;12.60;99.90;;;;;;5060879;28;20032;-56
2022/09/18 02:26:41;;;;;;;4.07;0.40;;;12.60;99.90;;;;;;5051999;28;20439;-57
2022/09/18 02:29:11;;;;;;;3.28;0.80;;;12.70;99.90;;;;;;5053655;28;20021;-56
2022/09/18 02:31:38;;;;;;;1.35;0.45;;;12.70;99.90;;;;;;5067259;28;20104;-56
2022/09/18 02:34:05;;;;;;;4.55;0.50;;;12.60;99.90;;;;;;5053293;28;20025;-57
2022/09/18 02:36:41;;;;;;;5.88;0.55;;;12.60;99.90;;;;;;5049837;28;20017;-57
2022/09/18 02:39:34;;;;;;;5.38;0.70;;;12.60;99.90;;;;;;5053044;28;20029;-56
2022/09/18 02:42:24;;;;;;;2.80;0.40;;;12.70;99.90;;;;;;5053247;28;20052;-56
2022/09/18 02:45:13;;;;;;;1.85;0.50;;;12.60;99.90;;;;;;5069039;28;20064;-57
2022/09/18 02:48:06;;;;;;;2.33;0.40;;;12.60;99.90;;;;;;5067067;28;20021;-55
2022/09/18 02:51:03;;;;;;;4.63;0.50;;;12.60;99.90;;;;;;5050493;28;20020;-56
2022/09/18 02:53:39;;;;;;;3.42;0.60;;;12.70;99.90;;;;;;5052547;28;20056;-56
2022/09/18 02:56:11;;;;;;;2.97;0.60;;;12.60;99.90;;;;;;5052507;28;20017;-56
2022/09/18 02:58:57;;;;;;;3.65;0.63;;;12.60;99.90;;;;;;5053116;28;20098;-56
2022/09/18 03:01:25;;;;;;;2.60;0.35;;;12.60;99.90;;;;;;5040071;28;20036;-56
2022/09/18 03:03:51;;;;;;;3.72;0.65;;;12.70;99.90;;;;;;5052805;28;20070;-57
2022/09/18 03:06:17;;;;;;;2.50;0.38;;;12.70;99.90;;;;;;5052900;28;20060;-56
2022/09/18 03:08:43;;;;;;;2.67;0.30;;;12.60;99.90;;;;;;5053259;28;20060;-55
2022/09/18 03:11:08;;;;;;;2.45;0.40;;;12.60;99.90;;;;;;5052848;28;20481;-56
2022/09/18 03:13:34;;;;;;;3.40;0.60;;;12.70;99.90;;;;;;5051971;28;20021;-56
2022/09/18 03:15:59;;;;;;;4.15;0.60;;;12.70;99.90;;;;;;5052390;28;20099;-56
2022/09/18 03:18:25;;;;;;;3.88;0.65;;;12.70;99.90;;;;;;5052668;28;20032;-56
2022/09/18 03:20:51;;;;;;;2.95;0.50;;;12.70;99.90;;;;;;5065519;28;20389;-57
2022/09/18 03:23:17;;;;;;;5.72;0.50;;;12.60;99.90;;;;;;5052667;28;20074;-56
2022/09/18 03:25:42;;;;;;;3.15;0.85;;;12.60;99.90;;;;;;5064788;28;20366;-56
2022/09/18 03:28:08;;;;;;;5.03;1.23;;;12.60;99.90;;;;;;5050524;28;20029;-57
2022/09/18 03:30:33;;;;;;;4.68;0.40;;;12.60;99.90;;;;;;5063241;28;20021;-55
2022/09/18 03:32:59;;;;;;;2.00;0.30;;;12.60;99.90;;;;;;5052552;28;20017;-55
2022/09/18 03:35:24;;;;;;;3.13;0.80;;;12.60;99.90;;;;;;5040296;28;20120;-57
2022/09/18 03:37:50;;;;;;;6.80;0.50;;;12.60;99.90;;;;;;5051960;28;20025;-55
2022/09/18 03:40:15;;;;;;;2.08;0.50;;;12.70;99.90;;;;;;5059388;28;20400;-57
2022/09/18 03:42:44;;;;;;;3.50;1.13;;;12.60;99.90;;;;;;5052019;28;20063;-56
2022/09/18 03:45:11;;;;;;;2.85;0.50;;;12.60;99.90;;;;;;5052370;28;20031;-57
2022/09/18 03:47:36;;;;;;;3.03;0.40;;;12.60;99.90;;;;;;5050758;28;20484;-57
2022/09/18 03:50:04;;;;;;;2.78;0.60;;;12.60;99.90;;;;;;5051916;28;20108;-56
2022/09/18 03:52:30;;;;;;;5.00;0.50;;;12.60;99.90;;;;;;5051216;28;20477;-57
2022/09/18 03:54:56;;;;;;;2.92;0.40;;;12.50;99.90;;;;;;5052429;28;20035;-57
2022/09/18 03:57:21;;;;;;;3.13;0.50;;;12.50;99.90;;;;;;5047786;28;20064;-57
2022/09/18 03:59:47;;;;;;;2.80;0.50;;;12.50;99.90;;;;;;5050687;28;20044;-57
2022/09/18 04:02:12;;;;;;;2.38;0.50;;;12.50;99.90;;;;;;5064331;28;20033;-57
2022/09/18 04:04:38;;;;;;;1.23;0.40;;;12.50;99.90;;;;;;5050675;28;20392;-55
2022/09/18 04:07:03;;;;;;;1.88;0.50;;;12.50;99.90;;;;;;5057100;28;20362;-57
2022/09/18 04:09:29;;;;;;;1.52;0.40;;;12.50;99.90;;;;;;5051549;28;20013;-57
2022/09/18 04:11:54;;;;;;;3.88;0.80;;;12.50;99.90;;;;;;5051589;28;20023;-57
2022/09/18 04:14:21;;;;;;;3.85;0.70;;;12.60;99.90;;;;;;5062872;28;20393;-57
2022/09/18 04:16:47;;;;;;;3.42;0.63;;;12.60;99.90;;;;;;5051498;28;20043;-56
2022/09/18 04:19:13;;;;;;;4.25;0.50;;;12.60;99.90;;;;;;5051680;28;20040;-57
2022/09/18 04:21:38;;;;;;;2.47;0.52;;;12.60;99.90;;;;;;5047473;28;20021;-57
2022/09/18 04:24:05;;;;;;;2.97;0.40;;;12.60;99.90;;;;;;5051726;28;20488;-56
2022/09/18 04:26:30;;;;;;;3.60;0.70;;;12.60;99.90;;;;;;5050207;28;20104;-55
2022/09/18 04:28:56;;;;;;;3.83;0.70;;;12.60;99.90;;;;;;5049461;28;20091;-55
2022/09/18 04:31:21;;;;;;;3.65;0.40;;;12.60;99.90;;;;;;5051438;28;20389;-56
2022/09/18 04:33:47;;;;;;;3.67;0.70;;;12.60;99.90;;;;;;5051218;28;20017;-56
2022/09/18 04:36:12;;;;;;;1.83;0.40;;;12.60;99.90;;;;;;5051181;28;20024;-56
2022/09/18 04:38:38;;;;;;;1.95;0.30;;;12.60;99.90;;;;;;5061908;28;20048;-55
2022/09/18 04:41:04;;;;;;;1.42;0.40;;;12.60;99.90;;;;;;5050868;28;20128;-57
2022/09/18 04:43:29;;;;;;;2.10;0.30;;;12.60;99.90;;;;;;5058105;28;20024;-56
2022/09/18 04:45:55;;;;;;;4.03;0.40;;;12.60;99.90;;;;;;5049854;28;20027;-57
2022/09/18 04:48:21;;;;;;;3.85;0.45;;;12.60;99.90;;;;;;5049843;28;20040;-57
2022/09/18 04:50:48;;;;;;;2.97;0.32;;;12.60;99.90;;;;;;5051163;28;20074;-55
2022/09/18 04:53:14;;;;;;;2.28;0.32;;;12.60;99.90;;;;;;5047185;28;20021;-57
2022/09/18 04:55:43;;;;;;;3.42;0.50;;;12.60;99.90;;;;;;5048731;28;20082;-57
2022/09/18 04:58:08;;;;;;;4.07;0.43;;;12.60;99.90;;;;;;5051295;28;20112;-57
2022/09/18 05:00:34;;;;;;;3.38;0.47;;;12.60;99.90;;;;;;5050251;28;20115;-57
2022/09/18 05:03:00;;;;;;;4.50;0.85;;;12.60;99.90;;;;;;5043679;28;20393;-57
2022/09/18 05:05:27;;;;;;;1.30;0.30;;;12.60;99.90;;;;;;5052866;28;20059;-55
2022/09/18 05:07:52;;;;;;;2.67;0.40;;;12.60;99.90;;;;;;5032409;28;20025;-57
2022/09/18 05:10:18;;;;;;;4.00;0.40;;;12.60;99.90;;;;;;5042162;28;20020;-57
2022/09/18 05:12:44;;;;;;;2.35;0.40;;;12.60;99.90;;;;;;5042751;28;20084;-56
2022/09/18 05:15:10;;;;;;;2.90;0.50;;;12.60;99.90;;;;;;5043447;28;20037;-57
2022/09/18 05:17:39;;;;;;;3.72;0.40;;;12.50;99.90;;;;;;5042506;28;20067;-57
2022/09/18 05:20:06;;;;;;;1.70;0.30;;;12.50;99.90;;;;;;5041979;28;20494;-57
2022/09/18 05:22:32;;;;;;;1.30;0.30;;;12.50;99.90;;;;;;5045726;28;20094;-56
2022/09/18 05:24:57;;;;;;;2.67;0.40;;;12.60;99.90;;;;;;5040689;28;20025;-56
2022/09/18 05:27:23;;;;;;;2.17;0.40;;;12.60;99.90;;;;;;5046091;28;20082;-57
2022/09/18 05:29:48;;;;;;;2.80;0.40;;;12.60;99.90;;;;;;5042630;28;20025;-56
2022/09/18 05:32:17;;;;;;;4.80;0.40;;;12.60;99.90;;;;;;5045465;28;20017;-56
2022/09/18 05:34:42;;;;;;;1.58;0.32;;;12.60;99.90;;;;;;5042538;28;20060;-57
2022/09/18 05:37:09;;;;;;;3.47;0.50;;;12.60;99.90;;;;;;5037160;28;20068;-56
2022/09/18 05:39:34;;;;;;;1.73;0.35;;;12.60;99.90;;;;;;5049360;28;20379;-57
2022/09/18 05:42:00;;;;;;;2.03;0.40;;;12.60;99.90;;;;;;5054481;28;20053;-56
2022/09/18 05:44:25;;;;;;;2.53;0.50;;;12.60;99.90;;;;;;5044365;28;20481;-57
2022/09/18 05:46:51;;;;;;;2.92;0.40;;;12.60;99.90;;;;;;5048443;28;20461;-56
2022/09/18 05:49:16;;;;;;;1.17;0.40;;;12.60;99.90;;;;;;5046555;28;20029;-56
2022/09/18 05:51:43;;;;;;;1.50;0.43;;;12.60;99.90;;;;;;5054882;28;20082;-56
2022/09/18 05:54:09;;;;;;;2.60;0.30;;;12.60;99.90;;;;;;5047517;28;20041;-57
2022/09/18 05:56:34;;;;;;;2.78;0.68;;;12.60;99.90;;;;;;5045113;28;20063;-57
2022/09/18 05:59:00;;;;;;;1.88;0.30;;;12.60;99.90;;;;;;5046630;28;20033;-57
2022/09/18 06:01:25;;;;;;;2.40;0.30;;;12.60;99.90;;;;;;5051383;28;20017;-56
2022/09/18 06:03:51;;;;;;;1.92;0.20;;;12.60;99.90;;;;;;5039943;28;20017;-55
2022/09/18 06:06:16;;;;;;;1.35;0.30;;;12.60;99.90;;;;;;5045305;28;20032;-57
2022/09/18 06:08:42;;;;;;;2.25;0.95;;;12.60;99.90;;;;;;5046911;28;20057;-56
2022/09/18 06:11:08;;;;;;;1.52;0.20;;;12.60;99.90;;;;;;5039696;28;20025;-57
2022/09/18 06:13:33;;;;;;;3.30;0.30;;;12.60;99.90;;;;;;5062302;28;20021;-56
2022/09/18 06:15:59;;;;;;;1.92;0.40;;;12.70;99.90;;;;;;5043428;28;20025;-56
2022/09/18 06:18:25;;;;;;;1.17;0.28;;;12.60;99.90;;;;;;5044929;28;20082;-57
2022/09/18 06:20:56;;;;;;;1.98;0.47;;;12.60;99.90;;;;;;5051252;28;20397;-57
2022/09/18 06:23:23;;;;;;;0.50;0.20;;;12.70;99.90;;;;;;5051369;28;20029;-57
2022/09/18 06:26:03;;;;;;;2.10;0.30;;;12.70;99.90;;;;;;5045989;28;20088;-56
2022/09/18 06:28:29;;;;;;;1.83;0.30;;;12.80;99.90;;;;;;5057679;28;20431;-56
2022/09/18 06:31:00;;;;;;;1.23;0.20;;;12.80;99.90;;;;;;5048424;28;20088;-56
2022/09/18 06:33:28;;;;;;;1.35;0.38;;;12.90;99.90;;;;;;5052746;28;20029;-56
2022/09/18 06:35:54;;;;;;;2.90;0.32;;;12.90;99.90;;;;;;5045850;28;20025;-56
2022/09/18 06:38:19;;;;;;;1.65;0.22;;;13.00;99.90;;;;;;5054079;28;20074;-55
2022/09/18 06:40:50;;;;;;;2.70;0.30;;;13.00;99.90;;;;;;5046396;28;20045;-55
2022/09/18 06:43:16;;;;;;;2.05;0.32;;;13.10;99.90;;;;;;5046607;28;20462;-55
2022/09/18 06:45:42;;;;;;;0.77;0.20;;;13.10;99.90;;;;;;5048869;28;20052;-55
2022/09/18 06:48:07;;;;;;;1.17;0.20;;;13.10;99.90;;;;;;5043806;28;20041;-56
2022/09/18 06:50:33;;;;;;;0.85;0.20;;;13.20;99.90;;;;;;5048941;28;20035;-55
2022/09/18 06:53:04;;;;;;;1.75;0.55;;;13.20;99.90;;;;;;5050434;28;20385;-56
2022/09/18 06:55:30;;;;;;;1.83;0.22;;;13.30;99.90;;;;;;5058542;28;20063;-56
2022/09/18 06:58:04;;;;;;;1.77;0.30;;;13.30;99.90;;;;;;5052852;28;20108;-56
2022/09/18 07:00:30;;;;;;;3.55;0.30;;;13.40;99.90;;;;;;5048698;28;20909;-56
2022/09/18 07:02:57;;;;;;;1.08;0.20;;;13.40;99.90;;;;;;5052679;28;20025;-55
2022/09/18 07:05:25;;;;;;;2.05;0.30;;;13.50;99.90;;;;;;5052707;28;20048;-55
2022/09/18 07:07:50;;;;;;;1.05;0.20;;;13.50;99.80;;;;;;5061166;28;20400;-57
2022/09/18 07:10:16;;;;;;;2.42;0.30;;;13.60;99.80;;;;;;5052764;28;20021;-56
2022/09/18 07:12:45;;;;;;;2.30;0.40;;;13.60;99.80;;;;;;5044996;28;20044;-56
2022/09/18 07:15:11;;;;;;;0.95;0.25;;;13.50;99.90;;;;;;5048000;28;20010;-56
2022/09/18 07:17:36;;;;;;;2.53;0.32;;;13.50;99.90;;;;;;5045967;28;20037;-57
2022/09/18 07:20:02;;;;;;;2.63;0.32;;;13.50;99.90;;;;;;5052380;28;20033;-57
2022/09/18 07:22:28;;;;;;;2.70;0.30;;;13.60;99.90;;;;;;5053185;28;20032;-57
2022/09/18 07:24:53;;;;;;;1.83;0.38;;;13.60;99.90;;;;;;5052598;28;20021;-56
2022/09/18 07:27:19;;;;;;;3.28;0.38;;;13.70;99.90;;;;;;5052875;28;20028;-57
2022/09/18 07:29:44;;;;;;;2.08;0.38;;;13.70;99.90;;;;;;5054163;28;20049;-57
2022/09/18 07:32:10;;;;;;;1.02;0.30;;;13.80;99.90;;;;;;5039407;28;20037;-56
2022/09/18 07:34:35;;;;;;;2.90;0.50;;;13.80;99.90;;;;;;5051015;28;20029;-57
2022/09/18 07:37:01;;;;;;;2.42;0.30;;;13.80;99.90;;;;;;5047710;28;20048;-56
2022/09/18 07:39:26;;;;;;;1.80;0.20;;;13.80;99.90;;;;;;5051944;28;20151;-57
2022/09/18 07:41:52;;;;;;;1.67;0.47;;;13.90;99.90;;;;;;5047974;28;20063;-56
2022/09/18 07:44:17;;;;;;;2.30;0.40;;;13.90;99.90;;;;;;5053530;28;20078;-57
2022/09/18 07:46:43;;;;;;;2.75;0.25;;;14.00;99.90;;;;;;5050127;28;20021;-57
2022/09/18 07:49:08;;;;;;;2.28;0.40;;;14.00;99.80;;;;;;5049984;28;20100;-57
2022/09/18 07:51:34;;;;;;;1.17;0.30;;;14.10;99.80;;;;;;5049402;28;20021;-56
2022/09/18 07:53:59;;;;;;;2.83;0.40;;;14.10;99.60;;;;;;5047297;28;20389;-56
2022/09/18 07:56:25;;;;;;;1.75;0.30;;;14.20;99.60;;;;;;5048099;28;20033;-56
2022/09/18 07:58:50;;;;;;;1.25;0.28;;;14.20;99.60;;;;;;5049106;28;20021;-57
2022/09/18 08:01:16;;;;;;;1.92;0.30;;;14.30;99.50;;;;;;5051948;28;20033;-57
2022/09/18 08:03:41;;;;;;;3.45;0.45;;;14.40;99.40;;;;;;5052792;28;20021;-56
2022/09/18 08:06:07;;;;;;;2.17;0.30;;;14.40;99.20;;;;;;5053244;28;20033;-57
2022/09/18 08:08:35;;;;;;;3.33;0.40;;;14.40;99.00;;;;;;5055475;28;20507;-56
2022/09/18 08:11:02;;;;;;;1.23;0.30;;;14.40;99.00;;;;;;5068790;28;20017;-55
2022/09/18 08:13:27;;;;;;;2.65;0.40;;;14.50;99.00;;;;;;5054587;28;20021;-56
2022/09/18 08:15:53;;;;;;;1.85;0.30;;;14.50;98.90;;;;;;5050997;28;20024;-56
2022/09/18 08:18:20;;;;;;;3.55;0.40;;;14.50;98.80;;;;;;5061991;28;20048;-56
2022/09/18 08:20:45;;;;;;;3.33;0.40;;;14.60;98.70;;;;;;5051814;28;20040;-56
2022/09/18 08:23:11;;;;;;;2.17;0.40;;;14.60;98.60;;;;;;5064132;28;20025;-57
2022/09/18 08:25:37;;;;;;;1.58;0.30;;;14.60;98.50;;;;;;5046773;28;20060;-56
2022/09/18 08:28:04;;;;;;;2.63;0.38;;;14.70;98.40;;;;;;5047139;28;20029;-56
2022/09/18 08:30:30;;;;;;;2.83;0.30;;;14.70;98.40;;;;;;5047998;28;20029;-57
2022/09/18 08:33:00;;;;;;;1.05;0.43;;;14.70;98.50;;;;;;5049412;28;20019;-56
2022/09/18 08:35:27;;;;;;;1.42;0.30;;;14.80;98.50;;;;;;5047811;28;20033;-57
2022/09/18 08:37:54;;;;;;;1.23;0.40;;;14.90;98.50;;;;;;5052531;28;20108;-57
2022/09/18 08:40:52;;;;;;;1.63;0.30;;;14.90;98.40;;;;;;5047955;28;20052;-57
2022/09/18 08:43:40;;;;;;;2.47;0.50;;;15.10;98.30;;;;;;5053296;28;20499;-56
2022/09/18 08:46:31;;;;;;;2.63;0.30;;;15.20;98.10;;;;;;5038025;28;20043;-56
2022/09/18 08:49:21;;;;;;;1.58;0.30;;;15.30;97.90;;;;;;5049300;28;21489;-57
2022/09/18 08:52:10;;;;;;;1.63;0.28;;;15.40;97.70;;;;;;5062935;28;20460;-58
2022/09/18 08:54:45;;;;;;;2.63;0.47;;;15.50;97.40;;;;;;5065439;28;20073;-57
2022/09/18 08:57:26;;;;;;;1.38;0.30;;;15.50;97.10;;;;;;5068109;28;20060;-58
2022/09/18 09:00:01;;;;;;;4.70;0.77;;;15.50;97.00;;;;;;5051284;28;20037;-57
2022/09/18 09:02:44;;;;;;;3.65;0.50;;;15.40;96.80;;;;;;5062619;28;20075;-55
2022/09/18 09:05:13;;;;;;;2.72;0.30;;;15.30;97.10;;;;;;5048780;28;20017;-56
2022/09/18 09:08:01;;;;;;;1.57;0.20;;;15.30;96.90;;;;;;5049396;28;20079;-57
2022/09/18 09:10:29;;;;;;;3.20;0.50;;;15.30;97.10;;;;;;5048980;28;20013;-57
2022/09/18 09:13:24;;;;;;;2.38;0.40;;;15.20;97.20;;;;;;5049553;28;20021;-56
2022/09/18 09:16:02;;;;;;;4.25;0.32;;;15.20;97.20;;;;;;5050376;28;20068;-56
2022/09/18 09:18:58;;;;;;;2.03;0.30;;;15.10;97.30;;;;;;5058865;28;20025;-55
2022/09/18 09:21:49;;;;;;;1.88;0.30;;;15.00;97.40;;;;;;5032339;28;20031;-56
2022/09/18 09:24:23;;;;;;;1.50;0.20;;;15.00;97.60;;;;;;5070094;28;20074;-57
2022/09/18 09:26:50;;;;;;;2.35;0.30;;;15.00;97.60;;;;;;5058723;28;20033;-55
2022/09/18 09:29:33;;;;;;;2.88;0.40;;;14.90;97.70;;;;;;5045779;28;20504;-57
2022/09/18 09:32:21;;;;;;;1.73;0.40;;;15.00;97.60;;;;;;5065415;28;20389;-56
2022/09/18 09:34:54;;;;;;;2.28;0.30;;;15.10;97.60;;;;;;5048154;28;20182;-57
2022/09/18 09:37:27;;;;;;;1.15;0.20;;;15.30;97.40;;;;;;5041951;28;20060;-57
2022/09/18 09:40:09;;;;;;;3.53;0.65;;;15.30;97.10;;;;;;5039209;28;20033;-57
2022/09/18 09:42:44;;;;;;;2.50;0.30;;;15.40;97.00;;;;;;5043426;28;20028;-56
2022/09/18 09:45:15;;;;;;;1.92;0.22;;;15.30;97.00;;;;;;5051101;28;20512;-57
2022/09/18 09:47:59;;;;;;;2.88;0.65;;;15.20;97.10;;;;;;5062595;28;20069;-58
2022/09/18 09:50:42;;;;;;;1.40;0.20;;;15.30;97.30;;;;;;5048410;28;20017;-57
2022/09/18 09:53:11;;;;;;;1.40;0.30;;;15.20;97.40;;;;;;5047390;28;20037;-57
2022/09/18 09:55:58;;;;;;;0.63;0.17;;;15.10;97.50;;;;;;5043054;28;20021;-57
2022/09/18 09:58:57;;;;;;;2.78;0.50;;;15.20;97.60;;;;;;5041943;28;20350;-57
2022/09/18 10:02:08;;;;;;;1.38;0.30;;;15.10;97.50;;;;;;5047372;28;20029;-57
2022/09/18 10:04:44;;;;;;;1.27;0.20;;;15.10;97.40;;;;;;5038359;28;20144;-57
2022/09/18 10:07:29;;;;;;;1.73;0.40;;;15.00;97.40;;;;;;5042650;28;20057;-55
2022/09/18 10:10:20;;;;;;;1.52;0.40;;;15.00;97.30;;;;;;5040963;28;20022;-57
2022/09/18 10:12:55;;;;;;;1.25;0.30;;;15.10;97.20;;;;;;5043057;28;20143;-57
2022/09/18 10:15:23;;;;;;;3.03;0.40;;;15.20;97.20;;;;;;5053136;28;20036;-57
2022/09/18 10:17:51;;;;;;;3.13;0.40;;;15.20;97.20;;;;;;5048155;28;20031;-58
2022/09/18 10:20:25;;;;;;;0.65;0.25;;;15.30;97.30;;;;;;5042243;28;20086;-57
2022/09/18 10:22:51;;;;;;;2.15;0.45;;;15.30;97.30;;;;;;5041874;28;20051;-57
2022/09/18 10:25:32;;;;;;;1.77;0.38;;;15.40;97.60;;;;;;5052481;28;20070;-57
2022/09/18 10:27:57;;;;;;;1.95;0.32;;;15.50;97.50;;;;;;5046233;28;20115;-57
2022/09/18 10:30:23;;;;;;;2.78;0.50;;;15.50;97.50;;;;;;5056816;28;20146;-56
2022/09/18 10:32:49;;;;;;;1.40;0.40;;;15.50;97.30;;;;;;5050622;28;20020;-57
2022/09/18 10:35:18;;;;;;;3.33;0.40;;;15.50;97.20;;;;;;5044902;28;20393;-57
2022/09/18 10:37:43;;;;;;;3.07;0.50;;;15.50;97.20;;;;;;5041518;28;20029;-57
2022/09/18 10:40:32;;;;;;;2.25;0.32;;;15.40;97.20;;;;;;5050305;28;20570;-57
2022/09/18 10:42:58;;;;;;;2.43;0.50;;;15.40;97.50;;;;;;5050877;28;20059;-57
2022/09/18 10:45:30;;;;;;;2.78;0.40;;;15.30;97.30;;;;;;5047504;28;20030;-56
2022/09/18 10:48:15;;;;;;;2.20;0.30;;;15.40;97.40;;;;;;5049424;28;20025;-57
2022/09/18 10:51:01;;;;;;;2.40;0.32;;;15.50;97.40;;;;;;5034614;28;20021;-57
2022/09/18 10:53:32;;;;;;;3.00;0.35;;;15.60;97.30;;;;;;5059019;28;20039;-57
2022/09/18 10:56:19;;;;;;;1.73;0.43;;;15.60;97.20;;;;;;5067076;28;20068;-57
2022/09/18 10:58:45;;;;;;;3.15;0.75;;;15.70;97.10;;;;;;5048674;28;20082;-57
2022/09/18 11:01:12;;;;;;;2.70;0.30;;;15.80;97.10;;;;;;5056759;28;20157;-57
2022/09/18 11:04:06;;;;;;;3.17;0.50;;;15.80;97.00;;;;;;5045559;28;20028;-56
2022/09/18 11:06:36;;;;;;;3.47;0.40;;;15.90;96.80;;;;;;5052780;28;20029;-58
2022/09/18 11:09:08;;;;;;;2.45;0.38;;;15.90;96.70;;;;;;5058941;28;20039;-56
2022/09/18 11:11:37;;;;;;;0.63;0.28;;;16.00;96.60;;;;;;5057873;28;20529;-58
2022/09/18 11:14:16;;;;;;;5.00;0.60;;;16.00;96.60;;;;;;5053392;28;20028;-57
2022/09/18 11:16:45;;;;;;;1.02;0.30;;;16.00;96.60;;;;;;5065555;28;20492;-57
2022/09/18 11:19:18;;;;;;;2.60;0.80;;;16.10;96.60;;;;;;5051960;28;20029;-57
2022/09/18 11:21:49;;;;;;;2.67;0.40;;;16.30;96.60;;;;;;5046569;28;20041;-56
2022/09/18 11:24:26;;;;;;;1.77;0.40;;;16.30;96.50;;;;;;5062025;28;20110;-57
2022/09/18 11:27:00;;;;;;;2.78;0.45;;;16.30;96.40;;;;;;5066447;28;20370;-58
2022/09/18 11:29:38;;;;;;;2.40;0.32;;;16.30;96.40;;;;;;5055184;28;20025;-57
2022/09/18 11:32:25;;;;;;;1.83;0.30;;;16.20;96.30;;;;;;5052394;28;20025;-57
2022/09/18 11:34:56;;;;;;;2.45;0.40;;;16.20;96.30;;;;;;5048068;28;20446;-57
2022/09/18 11:37:29;;;;;;;4.75;0.68;;;16.20;96.40;;;;;;5055245;28;20512;-57
2022/09/18 11:40:05;;;;;;;1.98;0.40;;;16.20;96.40;;;;;;5054065;28;20041;-56
2022/09/18 11:42:31;;;;;;;2.20;0.50;;;16.20;96.40;;;;;;5049089;28;20385;-57
2022/09/18 11:45:19;;;;;;;3.65;0.70;;;16.20;96.40;;;;;;5046926;28;20024;-57
2022/09/18 11:47:51;;;;;;;2.58;0.38;;;16.30;96.10;;;;;;5064717;28;20029;-57
2022/09/18 11:50:23;;;;;;;2.90;0.40;;;16.20;96.00;;;;;;5042224;28;20026;-57
2022/09/18 11:52:52;;;;;;;1.25;0.30;;;16.20;95.80;;;;;;5050490;28;20017;-57
2022/09/18 11:55:18;;;;;;;3.40;0.32;;;16.10;95.60;;;;;;5058738;28;20132;-57
2022/09/18 11:57:58;;;;;;;1.35;0.22;;;16.10;95.60;;;;;;5042433;28;20103;-58
2022/09/18 12:00:26;;;;;;;;;;;16.10;95.50;;;;;;5069011;28;20037;-55
2022/09/18 12:03:20;;;;;;;1.67;0.30;;;16.00;95.60;;;;;;5035710;28;19912;-56
2022/09/18 12:05:57;;;;;;;1.38;0.30;;;16.00;95.60;;;;;;5046557;28;20036;-56
2022/09/18 12:08:53;;;;;;;1.50;0.20;;;16.00;95.50;;;;;;5046601;28;20033;-57
2022/09/18 12:11:21;;;;;;;2.03;0.50;;;16.10;95.10;;;;;;5046027;28;20033;-58
2022/09/18 12:14:18;;;;;;;2.05;0.30;;;16.00;95.00;;;;;;5045482;28;20021;-57
2022/09/18 12:17:18;;;;;;;0.82;0.20;;;15.90;94.60;;;;;;5048473;28;20108;-57
2022/09/18 12:19:49;;;;;;;1.17;0.40;;;15.90;94.40;;;;;;5052584;28;20033;-57
2022/09/18 12:22:38;;;;;;;1.55;0.20;;;15.80;94.50;;;;;;5052685;28;20017;-57
2022/09/18 12:25:14;;;;;;;0.40;0.20;;;15.80;94.50;;;;;;5047524;28;20025;-57
2022/09/18 12:28:20;;;;;;;3.42;0.30;;;15.70;94.50;;;;;;5034926;28;20512;-58
2022/09/18 12:31:01;;;;;;;1.38;0.30;;;15.70;94.50;;;;;;5043623;28;20094;-57
2022/09/18 12:33:46;;;;;;;1.60;0.30;;;15.60;94.70;;;;;;5031573;28;20036;-56
2022/09/18 12:36:42;;;;;;;2.08;0.30;;;15.50;94.80;;;;;;5033858;28;20024;-57
2022/09/18 12:39:17;;;;;;;1.35;0.45;;;15.60;94.90;;;;;;5050815;28;20041;-57
2022/09/18 12:42:15;;;;;;;2.08;0.30;;;15.60;95.00;;;;;;5049389;28;20040;-58
2022/09/18 12:44:58;;;;;;;3.25;0.50;;;15.60;95.00;;;;;;5048157;28;20041;-57
2022/09/18 12:47:24;;;;;;;3.15;0.38;;;15.50;95.20;;;;;;5047632;28;20049;-57
2022/09/18 12:50:01;;;;;;;3.75;0.55;;;15.50;95.40;;;;;;5048234;28;20056;-56
2022/09/18 12:52:37;;;;;;;1.33;0.30;;;15.50;95.30;;;;;;5047156;28;20013;-57
2022/09/18 12:55:28;;;;;;;3.35;0.50;;;15.40;95.50;;;;;;5050008;28;20217;-57
2022/09/18 12:58:17;;;;;;;2.05;0.30;;;15.40;95.20;;;;;;5050525;28;20032;-56
2022/09/18 13:00:46;;;;;;;1.70;0.30;;;15.40;95.20;;;;;;5041111;28;20101;-57
2022/09/18 13:03:25;;;;;;;1.60;0.23;;;15.30;95.20;;;;;;5045045;28;20021;-55
2022/09/18 13:06:10;;;;;;;2.15;0.30;;;15.40;95.30;;;;;;5046639;28;20260;-57
2022/09/18 13:08:50;;;;;;;1.83;0.30;;;15.30;95.20;;;;;;5047743;28;20597;-57
2022/09/18 13:11:50;;;;;;;0.45;0.30;;;15.30;95.20;;;;;;5047145;28;20028;-56
2022/09/18 13:14:26;;;;;;;1.90;0.30;;;15.30;95.20;;;;;;5047165;28;20496;-56